sensor_id;sensor_type;location;lat;lon;timestamp;pressure;altitude;pressure_sealevel;temperature;humidity
69796;BME280;57073;45.650;9.612;2023-05-21T00:02:40;99039.31;;;14.19;70.56
69796;BME280;57073;45.650;9.612;2023-05-21T00:07:41;99033.88;;;14.24;70.01
69796;BME280;57073;45.650;9.612;2023-05-21T00:12:42;99031.75;;;14.26;70.00
69796;BME280;57073;45.650;9.612;2023-05-21T00:17:42;99033.34;;;14.17;70.19
69796;BME280;57073;45.650;9.612;2023-05-21T00:22:43;99036.06;;;14.22;69.51
69796;BME280;57073;45.650;9.612;2023-05-21T00:27:43;99021.94;;;14.10;69.07
69796;BME280;57073;45.650;9.612;2023-05-21T00:32:44;99027.09;;;14.06;69.23
69796;BME280;57073;45.650;9.612;2023-05-21T00:37:44;99017.56;;;13.93;68.97
69796;BME280;57073;45.650;9.612;2023-05-21T00:42:46;99001.03;;;14.00;69.10
69796;BME280;57073;45.650;9.612;2023-05-21T00:47:47;99002.34;;;13.92;69.29
69796;BME280;57073;45.650;9.612;2023-05-21T00:52:47;98989.94;;;14.07;69.25
69796;BME280;57073;45.650;9.612;2023-05-21T00:57:49;98992.06;;;13.94;69.11
69796;BME280;57073;45.650;9.612;2023-05-21T01:02:50;98990.44;;;13.98;68.72
69796;BME280;57073;45.650;9.612;2023-05-21T01:07:50;98992.63;;;14.01;68.57
69796;BME280;57073;45.650;9.612;2023-05-21T01:12:51;98982.88;;;13.95;68.45
69796;BME280;57073;45.650;9.612;2023-05-21T01:17:53;98983.69;;;14.01;68.50
69796;BME280;57073;45.650;9.612;2023-05-21T01:22:55;98986.34;;;13.91;68.33
69796;BME280;57073;45.650;9.612;2023-05-21T01:27:56;98978.22;;;13.85;68.39
69796;BME280;57073;45.650;9.612;2023-05-21T01:33:24;98981.22;;;13.94;68.18
69796;BME280;57073;45.650;9.612;2023-05-21T01:38:28;98964.91;;;13.84;68.09
69796;BME280;57073;45.650;9.612;2023-05-21T01:43:37;98972.03;;;13.95;67.91
69796;BME280;57073;45.650;9.612;2023-05-21T01:48:38;98956.31;;;14.08;67.60
69796;BME280;57073;45.650;9.612;2023-05-21T01:53:39;98954.44;;;14.08;67.29
69796;BME280;57073;45.650;9.612;2023-05-21T01:58:40;98957.66;;;14.05;67.46
69796;BME280;57073;45.650;9.612;2023-05-21T02:03:40;98957.13;;;14.08;66.89
69796;BME280;57073;45.650;9.612;2023-05-21T02:08:41;98957.97;;;14.14;66.72
69796;BME280;57073;45.650;9.612;2023-05-21T02:13:41;98954.16;;;14.15;66.74
69796;BME280;57073;45.650;9.612;2023-05-21T02:18:42;98957.41;;;14.07;66.54
69796;BME280;57073;45.650;9.612;2023-05-21T02:23:42;98948.16;;;14.08;66.99
69796;BME280;57073;45.650;9.612;2023-05-21T02:28:43;98951.44;;;14.10;66.41
69796;BME280;57073;45.650;9.612;2023-05-21T02:33:43;98952.25;;;14.10;66.37
69796;BME280;57073;45.650;9.612;2023-05-21T02:38:44;98971.47;;;13.98;66.58
69796;BME280;57073;45.650;9.612;2023-05-21T02:43:44;98985.09;;;14.19;66.44
69796;BME280;57073;45.650;9.612;2023-05-21T02:48:44;99002.72;;;14.21;66.49
69796;BME280;57073;45.650;9.612;2023-05-21T02:53:45;98991.34;;;14.24;66.39
69796;BME280;57073;45.650;9.612;2023-05-21T02:58:45;99003.81;;;14.31;68.16
69796;BME280;57073;45.650;9.612;2023-05-21T03:03:46;98999.47;;;14.30;68.46
69796;BME280;57073;45.650;9.612;2023-05-21T03:08:46;99001.38;;;14.34;69.46
69796;BME280;57073;45.650;9.612;2023-05-21T03:13:46;98993.25;;;14.34;69.40
69796;BME280;57073;45.650;9.612;2023-05-21T03:18:47;98984.59;;;14.48;69.01
69796;BME280;57073;45.650;9.612;2023-05-21T03:23:48;98994.88;;;14.46;68.83
69796;BME280;57073;45.650;9.612;2023-05-21T03:28:48;99000.31;;;14.40;68.80
69796;BME280;57073;45.650;9.612;2023-05-21T03:33:48;98994.91;;;14.40;68.38
69796;BME280;57073;45.650;9.612;2023-05-21T03:38:49;98988.34;;;14.36;68.88
69796;BME280;57073;45.650;9.612;2023-05-21T03:43:49;98981.59;;;14.34;67.82
69796;BME280;57073;45.650;9.612;2023-05-21T03:48:50;98979.13;;;14.32;68.20
69796;BME280;57073;45.650;9.612;2023-05-21T03:53:50;98987.00;;;14.29;68.50
69796;BME280;57073;45.650;9.612;2023-05-21T03:58:51;98988.31;;;14.16;67.75
69796;BME280;57073;45.650;9.612;2023-05-21T04:03:51;98988.84;;;14.08;67.95
69796;BME280;57073;45.650;9.612;2023-05-21T04:08:52;98986.13;;;14.08;67.07
69796;BME280;57073;45.650;9.612;2023-05-21T04:13:52;98976.38;;;14.07;67.21
69796;BME280;57073;45.650;9.612;2023-05-21T04:18:52;98968.28;;;14.17;66.88
69796;BME280;57073;45.650;9.612;2023-05-21T04:23:54;98975.59;;;14.21;66.90
69796;BME280;57073;45.650;9.612;2023-05-21T04:28:56;98972.59;;;14.18;66.71
69796;BME280;57073;45.650;9.612;2023-05-21T04:33:58;98973.38;;;14.03;66.53
69796;BME280;57073;45.650;9.612;2023-05-21T04:38:58;98972.63;;;14.23;66.40
69796;BME280;57073;45.650;9.612;2023-05-21T04:43:59;98976.41;;;14.17;65.89
69796;BME280;57073;45.650;9.612;2023-05-21T04:49:03;98972.91;;;14.32;66.44
69796;BME280;57073;45.650;9.612;2023-05-21T04:54:03;98966.63;;;14.16;65.74
69796;BME280;57073;45.650;9.612;2023-05-21T04:59:04;98969.38;;;14.21;65.44
69796;BME280;57073;45.650;9.612;2023-05-21T05:04:05;98971.00;;;14.32;65.93
69796;BME280;57073;45.650;9.612;2023-05-21T05:09:05;98964.22;;;14.24;65.89
69796;BME280;57073;45.650;9.612;2023-05-21T05:14:06;98962.88;;;14.32;65.73
69796;BME280;57073;45.650;9.612;2023-05-21T05:19:06;98970.75;;;14.39;65.32
69796;BME280;57073;45.650;9.612;2023-05-21T05:24:07;98964.78;;;14.32;64.81
69796;BME280;57073;45.650;9.612;2023-05-21T05:29:07;98940.91;;;14.34;64.77
69796;BME280;57073;45.650;9.612;2023-05-21T05:34:07;98941.72;;;14.39;64.54
69796;BME280;57073;45.650;9.612;2023-05-21T05:39:08;98948.22;;;14.49;64.61
69796;BME280;57073;45.650;9.612;2023-05-21T05:44:08;98949.56;;;14.56;64.24
69796;BME280;57073;45.650;9.612;2023-05-21T05:49:08;98946.06;;;14.56;64.30
69796;BME280;57073;45.650;9.612;2023-05-21T05:54:09;98929.25;;;14.59;63.78
69796;BME280;57073;45.650;9.612;2023-05-21T05:59:09;98937.66;;;14.57;63.86
69796;BME280;57073;45.650;9.612;2023-05-21T06:04:09;98931.97;;;14.64;63.61
69796;BME280;57073;45.650;9.612;2023-05-21T06:09:10;98929.50;;;14.57;63.39
69796;BME280;57073;45.650;9.612;2023-05-21T06:14:10;98920.00;;;14.75;63.46
69796;BME280;57073;45.650;9.612;2023-05-21T06:19:11;98914.84;;;14.69;63.38
69796;BME280;57073;45.650;9.612;2023-05-21T06:24:11;98917.03;;;14.72;62.83
69796;BME280;57073;45.650;9.612;2023-05-21T06:29:11;98910.75;;;14.76;62.69
69796;BME280;57073;45.650;9.612;2023-05-21T06:34:12;98917.28;;;14.80;62.26
69796;BME280;57073;45.650;9.612;2023-05-21T06:39:13;98918.91;;;14.92;62.28
69796;BME280;57073;45.650;9.612;2023-05-21T06:44:13;98926.25;;;14.86;62.46
69796;BME280;57073;45.650;9.612;2023-05-21T06:49:14;98927.06;;;14.97;62.41
69796;BME280;57073;45.650;9.612;2023-05-21T06:54:15;98939.25;;;14.94;62.90
69796;BME280;57073;45.650;9.612;2023-05-21T06:59:15;98942.75;;;15.10;62.28
69796;BME280;57073;45.650;9.612;2023-05-21T07:04:16;98932.44;;;15.07;61.95
69796;BME280;57073;45.650;9.612;2023-05-21T07:09:16;98934.63;;;15.00;62.29
69796;BME280;57073;45.650;9.612;2023-05-21T07:14:17;98932.16;;;15.19;62.42
69796;BME280;57073;45.650;9.612;2023-05-21T07:19:18;98932.94;;;15.35;61.08
69796;BME280;57073;45.650;9.612;2023-05-21T07:24:18;98936.09;;;15.57;61.52
69796;BME280;57073;45.650;9.612;2023-05-21T07:29:18;98936.59;;;15.65;61.16
69796;BME280;57073;45.650;9.612;2023-05-21T07:34:19;98945.78;;;15.79;61.04
69796;BME280;57073;45.650;9.612;2023-05-21T07:39:19;98932.97;;;15.80;61.11
69796;BME280;57073;45.650;9.612;2023-05-21T07:44:20;98937.56;;;15.94;60.13
69796;BME280;57073;45.650;9.612;2023-05-21T07:49:20;98940.50;;;16.03;60.57
69796;BME280;57073;45.650;9.612;2023-05-21T07:54:20;98940.44;;;16.13;59.79
69796;BME280;57073;45.650;9.612;2023-05-21T07:59:21;98943.28;;;16.32;58.71
69796;BME280;57073;45.650;9.612;2023-05-21T08:04:21;98951.63;;;16.46;59.20
69796;BME280;57073;45.650;9.612;2023-05-21T08:09:22;98957.00;;;16.57;58.69
69796;BME280;57073;45.650;9.612;2023-05-21T08:14:22;98973.34;;;16.51;57.99
69796;BME280;57073;45.650;9.612;2023-05-21T08:19:22;98981.94;;;16.69;58.95
69796;BME280;57073;45.650;9.612;2023-05-21T08:24:23;99010.06;;;16.54;58.71
69796;BME280;57073;45.650;9.612;2023-05-21T08:29:23;99030.94;;;16.24;61.44
69796;BME280;57073;45.650;9.612;2023-05-21T08:34:23;99045.19;;;16.11;62.03
69796;BME280;57073;45.650;9.612;2023-05-21T08:39:24;99053.34;;;16.11;64.44
69796;BME280;57073;45.650;9.612;2023-05-21T08:44:24;99034.72;;;16.28;64.77
69796;BME280;57073;45.650;9.612;2023-05-21T08:49:29;99025.56;;;16.59;63.01
69796;BME280;57073;45.650;9.612;2023-05-21T08:54:34;99008.38;;;16.63;63.56
69796;BME280;57073;45.650;9.612;2023-05-21T08:59:36;98998.78;;;16.76;63.76
69796;BME280;57073;45.650;9.612;2023-05-21T09:04:40;98991.88;;;16.89;63.82
69796;BME280;57073;45.650;9.612;2023-05-21T09:09:48;99011.34;;;17.01;64.34
69796;BME280;57073;45.650;9.612;2023-05-21T09:14:51;99007.69;;;17.16;64.45
69796;BME280;57073;45.650;9.612;2023-05-21T09:25:19;99033.00;;;17.46;64.17
69796;BME280;57073;45.650;9.612;2023-05-21T09:30:20;99025.72;;;17.41;61.97
69796;BME280;57073;45.650;9.612;2023-05-21T09:35:21;99017.41;;;17.52;61.74
69796;BME280;57073;45.650;9.612;2023-05-21T09:40:22;99018.31;;;17.71;61.22
69796;BME280;57073;45.650;9.612;2023-05-21T09:45:26;99017.41;;;18.00;59.94
69796;BME280;57073;45.650;9.612;2023-05-21T09:50:27;99014.34;;;17.82;57.68
69796;BME280;57073;45.650;9.612;2023-05-21T09:55:27;99019.16;;;17.91;56.80
69796;BME280;57073;45.650;9.612;2023-05-21T10:00:28;99014.47;;;18.34;57.39
69796;BME280;57073;45.650;9.612;2023-05-21T10:05:29;99025.34;;;18.39;55.95
69796;BME280;57073;45.650;9.612;2023-05-21T10:10:30;99013.53;;;18.63;55.71
69796;BME280;57073;45.650;9.612;2023-05-21T10:15:38;99008.94;;;18.77;54.22
69796;BME280;57073;45.650;9.612;2023-05-21T10:20:41;99010.75;;;18.82;54.77
69796;BME280;57073;45.650;9.612;2023-05-21T10:25:42;99002.13;;;19.08;55.19
69796;BME280;57073;45.650;9.612;2023-05-21T10:30:43;98999.38;;;19.27;54.25
69796;BME280;57073;45.650;9.612;2023-05-21T10:35:45;99002.31;;;19.30;53.82
69796;BME280;57073;45.650;9.612;2023-05-21T10:40:48;99001.50;;;19.44;54.22
69796;BME280;57073;45.650;9.612;2023-05-21T10:56:23;98980.03;;;20.06;53.81
69796;BME280;57073;45.650;9.612;2023-05-21T11:01:28;98987.94;;;20.30;53.99
69796;BME280;57073;45.650;9.612;2023-05-21T11:06:32;98976.25;;;20.39;52.26
69796;BME280;57073;45.650;9.612;2023-05-21T11:11:43;98970.13;;;20.56;52.51
69796;BME280;57073;45.650;9.612;2023-05-21T11:16:44;98971.28;;;20.63;51.33
69796;BME280;57073;45.650;9.612;2023-05-21T11:21:50;98965.13;;;20.80;50.86
69796;BME280;57073;45.650;9.612;2023-05-21T11:31:59;98962.38;;;21.03;50.64
69796;BME280;57073;45.650;9.612;2023-05-21T11:42:36;98953.25;;;21.16;49.60
69796;BME280;57073;45.650;9.612;2023-05-21T11:47:38;98936.56;;;21.35;49.24
69796;BME280;57073;45.650;9.612;2023-05-21T11:52:39;98940.09;;;21.36;49.15
69796;BME280;57073;45.650;9.612;2023-05-21T11:57:43;98940.09;;;21.36;47.68
69796;BME280;57073;45.650;9.612;2023-05-21T12:02:49;98939.47;;;20.99;45.71
69796;BME280;57073;45.650;9.612;2023-05-21T12:07:50;98939.72;;;21.20;46.82
69796;BME280;57073;45.650;9.612;2023-05-21T12:12:50;98932.03;;;21.39;48.60
69796;BME280;57073;45.650;9.612;2023-05-21T12:17:51;98930.53;;;21.24;45.41
69796;BME280;57073;45.650;9.612;2023-05-21T12:22:51;98932.50;;;21.33;46.17
69796;BME280;57073;45.650;9.612;2023-05-21T12:27:52;98921.72;;;21.45;46.23
69796;BME280;57073;45.650;9.612;2023-05-21T12:32:57;98924.41;;;21.27;45.04
69796;BME280;57073;45.650;9.612;2023-05-21T12:38:01;98923.91;;;21.25;42.14
69796;BME280;57073;45.650;9.612;2023-05-21T12:43:03;98914.13;;;21.33;45.14
69796;BME280;57073;45.650;9.612;2023-05-21T12:48:04;98909.94;;;21.36;44.44
69796;BME280;57073;45.650;9.612;2023-05-21T12:53:08;98914.31;;;21.45;44.99
69796;BME280;57073;45.650;9.612;2023-05-21T12:58:12;98913.50;;;21.45;44.43
69796;BME280;57073;45.650;9.612;2023-05-21T13:03:13;98911.09;;;21.52;43.69
69796;BME280;57073;45.650;9.612;2023-05-21T13:08:13;98900.66;;;21.54;44.32
69796;BME280;57073;45.650;9.612;2023-05-21T13:13:15;98907.44;;;21.65;44.62
69796;BME280;57073;45.650;9.612;2023-05-21T13:18:16;98903.13;;;21.73;44.39
69796;BME280;57073;45.650;9.612;2023-05-21T13:23:16;98903.13;;;21.82;44.10
69796;BME280;57073;45.650;9.612;2023-05-21T13:28:17;98901.03;;;21.79;43.91
69796;BME280;57073;45.650;9.612;2023-05-21T13:33:17;98905.03;;;21.81;41.35
69796;BME280;57073;45.650;9.612;2023-05-21T13:38:18;98910.06;;;21.79;42.53
69796;BME280;57073;45.650;9.612;2023-05-21T13:43:18;98906.69;;;21.82;41.96
69796;BME280;57073;45.650;9.612;2023-05-21T13:48:18;98904.53;;;21.71;39.96
69796;BME280;57073;45.650;9.612;2023-05-21T13:53:20;98906.50;;;21.79;40.90
69796;BME280;57073;45.650;9.612;2023-05-21T13:58:20;98899.09;;;21.88;40.74
69796;BME280;57073;45.650;9.612;2023-05-21T14:03:20;98896.34;;;22.05;42.22
69796;BME280;57073;45.650;9.612;2023-05-21T14:08:21;98893.63;;;22.05;41.89
69796;BME280;57073;45.650;9.612;2023-05-21T14:13:22;98899.91;;;22.06;41.97
69796;BME280;57073;45.650;9.612;2023-05-21T14:18:23;98897.31;;;22.01;41.48
69796;BME280;57073;45.650;9.612;2023-05-21T14:23:23;98894.06;;;21.90;40.16
69796;BME280;57073;45.650;9.612;2023-05-21T14:28:23;98887.31;;;21.87;38.97
69796;BME280;57073;45.650;9.612;2023-05-21T14:33:24;98884.53;;;21.61;40.37
69796;BME280;57073;45.650;9.612;2023-05-21T14:38:24;98886.47;;;21.87;41.07
69796;BME280;57073;45.650;9.612;2023-05-21T14:43:24;98882.94;;;21.78;39.95
69796;BME280;57073;45.650;9.612;2023-05-21T14:48:25;98871.31;;;21.81;40.01
69796;BME280;57073;45.650;9.612;2023-05-21T14:53:25;98880.69;;;21.88;41.17
69796;BME280;57073;45.650;9.612;2023-05-21T14:58:26;98866.63;;;22.08;42.22
69796;BME280;57073;45.650;9.612;2023-05-21T15:03:26;98878.09;;;22.10;41.33
69796;BME280;57073;45.650;9.612;2023-05-21T15:08:26;98878.41;;;22.17;41.59
69796;BME280;57073;45.650;9.612;2023-05-21T15:13:27;98880.34;;;22.16;41.83
69796;BME280;57073;45.650;9.612;2023-05-21T15:18:27;98867.13;;;22.10;41.13
69796;BME280;57073;45.650;9.612;2023-05-21T15:23:28;98865.00;;;22.06;42.15
69796;BME280;57073;45.650;9.612;2023-05-21T15:28:29;98869.34;;;22.16;42.24
69796;BME280;57073;45.650;9.612;2023-05-21T15:33:29;98872.78;;;22.13;41.68
69796;BME280;57073;45.650;9.612;2023-05-21T15:38:29;98869.53;;;22.11;42.96
69796;BME280;57073;45.650;9.612;2023-05-21T15:43:30;98867.13;;;22.10;42.67
69796;BME280;57073;45.650;9.612;2023-05-21T15:48:30;98866.59;;;22.16;41.42
69796;BME280;57073;45.650;9.612;2023-05-21T15:53:31;98864.38;;;22.10;41.19
69796;BME280;57073;45.650;9.612;2023-05-21T15:58:31;98858.72;;;22.15;42.46
69796;BME280;57073;45.650;9.612;2023-05-21T16:03:31;98860.97;;;22.13;42.72
69796;BME280;57073;45.650;9.612;2023-05-21T16:08:32;98860.00;;;22.09;42.04
69796;BME280;57073;45.650;9.612;2023-05-21T16:13:33;98868.06;;;22.14;41.69
69796;BME280;57073;45.650;9.612;2023-05-21T16:18:33;98861.47;;;22.15;41.73
69796;BME280;57073;45.650;9.612;2023-05-21T16:23:34;98850.66;;;22.10;41.69
69796;BME280;57073;45.650;9.612;2023-05-21T16:28:37;98856.13;;;22.10;41.46
69796;BME280;57073;45.650;9.612;2023-05-21T16:33:38;98852.25;;;22.11;42.14
69796;BME280;57073;45.650;9.612;2023-05-21T16:38:38;98849.50;;;22.11;42.61
69796;BME280;57073;45.650;9.612;2023-05-21T16:43:39;98850.16;;;22.08;42.10
69796;BME280;57073;45.650;9.612;2023-05-21T16:48:39;98844.19;;;22.05;41.89
69796;BME280;57073;45.650;9.612;2023-05-21T16:53:41;98840.31;;;22.06;42.12
69796;BME280;57073;45.650;9.612;2023-05-21T16:58:41;98842.88;;;22.03;42.14
69796;BME280;57073;45.650;9.612;2023-05-21T17:03:42;98838.22;;;21.95;42.30
69796;BME280;57073;45.650;9.612;2023-05-21T17:08:42;98841.44;;;21.88;42.44
69796;BME280;57073;45.650;9.612;2023-05-21T17:13:43;98840.97;;;21.77;41.39
69796;BME280;57073;45.650;9.612;2023-05-21T17:18:47;98835.31;;;21.82;41.86
69796;BME280;57073;45.650;9.612;2023-05-21T17:23:47;98837.09;;;21.78;42.46
69796;BME280;57073;45.650;9.612;2023-05-21T17:28:47;98835.78;;;21.76;43.29
69796;BME280;57073;45.650;9.612;2023-05-21T17:33:48;98836.63;;;21.67;41.41
69796;BME280;57073;45.650;9.612;2023-05-21T17:38:48;98828.53;;;21.54;40.84
69796;BME280;57073;45.650;9.612;2023-05-21T17:43:50;98847.06;;;21.65;42.73
69796;BME280;57073;45.650;9.612;2023-05-21T17:48:50;98850.97;;;21.64;42.52
69796;BME280;57073;45.650;9.612;2023-05-21T17:53:50;98855.50;;;21.60;43.36
69796;BME280;57073;45.650;9.612;2023-05-21T17:58:51;98851.75;;;21.56;43.29
69796;BME280;57073;45.650;9.612;2023-05-21T18:03:51;98851.06;;;21.50;43.16
69796;BME280;57073;45.650;9.612;2023-05-21T18:08:51;98853.34;;;21.48;43.81
69796;BME280;57073;45.650;9.612;2023-05-21T18:13:52;98854.94;;;21.41;43.83
69796;BME280;57073;45.650;9.612;2023-05-21T18:18:53;98861.69;;;21.35;43.30
69796;BME280;57073;45.650;9.612;2023-05-21T18:23:54;98856.50;;;21.24;44.33
69796;BME280;57073;45.650;9.612;2023-05-21T18:28:57;98866.66;;;21.15;43.08
69796;BME280;57073;45.650;9.612;2023-05-21T18:33:58;98872.09;;;21.06;44.25
69796;BME280;57073;45.650;9.612;2023-05-21T18:38:58;98876.91;;;21.01;44.01
69796;BME280;57073;45.650;9.612;2023-05-21T18:44:08;98888.94;;;20.91;43.86
69796;BME280;57073;45.650;9.612;2023-05-21T18:49:09;98895.22;;;20.83;43.87
69796;BME280;57073;45.650;9.612;2023-05-21T18:54:09;98890.28;;;20.71;45.13
69796;BME280;57073;45.650;9.612;2023-05-21T18:59:10;98898.28;;;20.59;45.27
69796;BME280;57073;45.650;9.612;2023-05-21T19:04:10;98903.69;;;20.50;45.78
69796;BME280;57073;45.650;9.612;2023-05-21T19:09:11;98902.66;;;20.37;46.31
69796;BME280;57073;45.650;9.612;2023-05-21T19:14:12;98914.66;;;20.27;46.64
69796;BME280;57073;45.650;9.612;2023-05-21T19:19:12;98919.25;;;20.18;47.09
69796;BME280;57073;45.650;9.612;2023-05-21T19:24:12;98920.19;;;20.00;48.06
69796;BME280;57073;45.650;9.612;2023-05-21T19:29:13;98937.56;;;19.81;48.39
69796;BME280;57073;45.650;9.612;2023-05-21T19:34:13;98938.91;;;19.70;48.97
69796;BME280;57073;45.650;9.612;2023-05-21T19:39:13;98935.03;;;19.71;48.92
69796;BME280;57073;45.650;9.612;2023-05-21T19:44:14;98953.50;;;19.65;49.32
69796;BME280;57073;45.650;9.612;2023-05-21T19:49:14;98961.41;;;19.53;49.83
69796;BME280;57073;45.650;9.612;2023-05-21T19:54:14;98975.16;;;19.48;49.89
69796;BME280;57073;45.650;9.612;2023-05-21T19:59:15;98984.91;;;19.40;49.87
69796;BME280;57073;45.650;9.612;2023-05-21T20:04:15;98990.16;;;19.36;50.47
69796;BME280;57073;45.650;9.612;2023-05-21T20:09:16;98989.94;;;19.33;50.49
69796;BME280;57073;45.650;9.612;2023-05-21T20:14:17;98995.22;;;19.29;50.13
69796;BME280;57073;45.650;9.612;2023-05-21T20:19:17;98989.00;;;19.24;50.00
69796;BME280;57073;45.650;9.612;2023-05-21T20:24:19;98989.28;;;19.08;49.88
69796;BME280;57073;45.650;9.612;2023-05-21T20:29:19;98991.91;;;18.99;50.33
69796;BME280;57073;45.650;9.612;2023-05-21T20:34:20;98987.91;;;18.92;50.64
69796;BME280;57073;45.650;9.612;2023-05-21T20:39:20;98995.28;;;18.77;50.44
69796;BME280;57073;45.650;9.612;2023-05-21T20:44:22;99000.09;;;18.67;50.28
69796;BME280;57073;45.650;9.612;2023-05-21T20:49:22;98991.91;;;18.67;50.14
69796;BME280;57073;45.650;9.612;2023-05-21T20:54:23;98993.69;;;18.57;49.53
69796;BME280;57073;45.650;9.612;2023-05-21T20:59:25;99001.34;;;18.36;49.28
69796;BME280;57073;45.650;9.612;2023-05-21T21:04:26;99008.28;;;18.29;49.90
69796;BME280;57073;45.650;9.612;2023-05-21T21:09:26;99002.31;;;18.27;49.39
69796;BME280;57073;45.650;9.612;2023-05-21T21:14:27;99004.38;;;18.16;49.73
69796;BME280;57073;45.650;9.612;2023-05-21T21:19:27;99005.59;;;18.04;50.16
69796;BME280;57073;45.650;9.612;2023-05-21T21:24:27;99012.84;;;18.14;50.17
69796;BME280;57073;45.650;9.612;2023-05-21T21:29:28;99011.88;;;18.05;50.20
69796;BME280;57073;45.650;9.612;2023-05-21T21:34:28;99021.56;;;18.16;50.08
69796;BME280;57073;45.650;9.612;2023-05-21T21:39:29;99020.44;;;18.17;49.96
69796;BME280;57073;45.650;9.612;2023-05-21T21:44:29;99024.47;;;18.01;49.92
69796;BME280;57073;45.650;9.612;2023-05-21T21:49:29;99039.53;;;18.17;50.19
69796;BME280;57073;45.650;9.612;2023-05-21T21:54:30;99030.84;;;18.15;50.01
69796;BME280;57073;45.650;9.612;2023-05-21T21:59:30;99018.03;;;18.16;50.90
69796;BME280;57073;45.650;9.612;2023-05-21T22:04:31;99024.28;;;18.16;50.85
69796;BME280;57073;45.650;9.612;2023-05-21T22:09:31;99024.28;;;18.16;50.33
69796;BME280;57073;45.650;9.612;2023-05-21T22:14:32;99019.63;;;17.98;50.30
69796;BME280;57073;45.650;9.612;2023-05-21T22:19:33;99021.28;;;17.94;50.69
69796;BME280;57073;45.650;9.612;2023-05-21T22:24:34;99021.38;;;17.89;50.24
69796;BME280;57073;45.650;9.612;2023-05-21T22:29:34;99014.81;;;17.90;50.15
69796;BME280;57073;45.650;9.612;2023-05-21T22:34:35;99026.59;;;17.85;50.75
69796;BME280;57073;45.650;9.612;2023-05-21T22:39:35;99026.19;;;17.73;51.06
69796;BME280;57073;45.650;9.612;2023-05-21T22:44:35;99020.16;;;17.76;50.53
69796;BME280;57073;45.650;9.612;2023-05-21T22:49:36;99012.56;;;17.73;50.95
69796;BME280;57073;45.650;9.612;2023-05-21T22:54:37;99017.34;;;17.57;52.05
69796;BME280;57073;45.650;9.612;2023-05-21T22:59:37;99017.88;;;17.59;51.54
69796;BME280;57073;45.650;9.612;2023-05-21T23:04:37;99015.00;;;17.45;51.51
69796;BME280;57073;45.650;9.612;2023-05-21T23:09:38;99023.34;;;17.29;51.94
69796;BME280;57073;45.650;9.612;2023-05-21T23:14:38;99011.66;;;17.29;52.34
69796;BME280;57073;45.650;9.612;2023-05-21T23:19:39;99019.53;;;17.30;51.98
69796;BME280;57073;45.650;9.612;2023-05-21T23:24:39;99015.22;;;17.24;51.98
69796;BME280;57073;45.650;9.612;2023-05-21T23:29:40;99024.09;;;17.11;52.21
69796;BME280;57073;45.650;9.612;2023-05-21T23:34:40;99009.34;;;17.12;52.69
69796;BME280;57073;45.650;9.612;2023-05-21T23:39:41;99014.94;;;16.97;52.26
69796;BME280;57073;45.650;9.612;2023-05-21T23:44:43;99024.22;;;16.96;53.13
69796;BME280;57073;45.650;9.612;2023-05-21T23:49:43;99026.72;;;16.87;53.17
69796;BME280;57073;45.650;9.612;2023-05-21T23:54:44;99022.63;;;16.89;52.61
69796;BME280;57073;45.650;9.612;2023-05-21T23:59:44;99021.75;;;16.94;52.35
